Time;durP1;ratioP1;P1;durP2;ratioP2;P2;SDS_P1;SDS_P2;PMS_P1;PMS_P2;Temp;Humidity;BMP_temperature;BMP_pressure;BME280_temperature;BME280_humidity;BME280_pressure;Samples;Min_cycle;Max_cycle;Signal;HPM_P1;HPM_P2
2022/10/05 00:02:19;;;;;;;;;;;281.70;2278.40;;;;;;5090920;28;20361;-65
2022/10/05 00:04:45;;;;;;;;;;;281.60;2278.40;;;;;;5090250;28;20350;-61
2022/10/05 00:07:16;;;;;;;;;;;256.90;2252.80;;;;;;5090216;28;19951;-63
2022/10/05 00:09:42;;;;;;;;;;;256.80;2252.80;;;;;;5090283;28;19915;-61
2022/10/05 00:12:15;;;;;;;;;;;256.60;2252.80;;;;;;5089615;28;19916;-65
2022/10/05 00:14:41;;;;;;;;;;;256.50;2252.80;;;;;;5090530;28;19999;-63
2022/10/05 00:17:09;;;;;;;;;;;256.50;2252.80;;;;;;5090792;28;19908;-65
2022/10/05 00:19:38;;;;;;;;;;;256.40;2252.80;;;;;;5090407;28;20282;-63
2022/10/05 00:22:12;;;;;;;;;;;256.40;2252.80;;;;;;5090347;28;19930;-65
2022/10/05 00:24:37;;;;;;;;;;;256.50;2252.80;;;;;;5090450;28;19908;-62
2022/10/05 00:27:23;;;;;;;;;;;256.50;2252.80;;;;;;5090149;28;19953;-67
2022/10/05 00:29:49;;;;;;;;;;;256.50;2252.80;;;;;;5090478;28;20267;-63
2022/10/05 00:32:14;;;;;;;;;;;256.60;2252.80;;;;;;5089810;28;19916;-61
2022/10/05 00:34:40;;;;;;;;;;;256.60;2252.80;;;;;;5089847;28;19918;-62
2022/10/05 00:37:06;;;;;;;;;;;256.70;2252.80;;;;;;5090215;28;19920;-64
2022/10/05 00:39:33;;;;;;;;;;;256.60;2252.80;;;;;;5090020;28;20366;-63
2022/10/05 00:42:17;;;;;;;;;;;256.60;2252.80;;;;;;5090297;28;19912;-62
2022/10/05 00:44:42;;;;;;;;;;;256.70;2252.80;;;;;;5089943;28;19941;-65
2022/10/05 00:47:20;;;;;;;;;;;256.60;2252.80;;;;;;5090251;28;19908;-65
2022/10/05 00:50:06;;;;;;;;;;;256.40;2252.80;;;;;;5090237;28;19947;-62
2022/10/05 00:52:31;;;;;;;;;;;256.30;2252.80;;;;;;5067173;28;19912;-63
2022/10/05 00:55:06;;;;;;;;;;;256.30;2252.80;;;;;;5067851;28;20332;-63
2022/10/05 00:57:43;;;;;;;;;;;256.30;2252.80;;;;;;5067399;28;19983;-62
2022/10/05 01:00:11;;;;;;;;;;;256.40;2252.80;;;;;;5067735;28;19914;-61
2022/10/05 01:02:43;;;;;;;;;;;256.40;2252.80;;;;;;5067326;28;20317;-62
2022/10/05 01:05:14;;;;;;;;;;;256.50;2252.80;;;;;;5067638;28;20013;-62
2022/10/05 01:07:42;;;;;;;;;;;256.50;2252.80;;;;;;5067717;28;20019;-62
2022/10/05 01:10:11;;;;;;;;;;;256.50;2252.80;;;;;;5067688;28;19913;-61
2022/10/05 01:12:46;;;;;;;;;;;256.50;2252.80;;;;;;5067412;28;19916;-61
2022/10/05 01:15:17;;;;;;;;;;;256.20;2252.80;;;;;;5067426;28;20046;-63
2022/10/05 01:17:43;;;;;;;;;;;231.30;2252.80;;;;;;5066724;28;19916;-63
2022/10/05 01:20:15;;;;;;;;;;;231.30;2252.80;;;;;;5067701;28;19913;-64
2022/10/05 01:22:55;;;;;;;;;;;231.20;2252.80;;;;;;5067284;28;20370;-62
2022/10/05 01:25:23;;;;;;;;;;;231.20;2252.80;;;;;;5071182;28;19928;-62
2022/10/05 01:27:52;;;;;;;;;;;231.20;2252.80;;;;;;5071154;28;19908;-63
2022/10/05 01:30:18;;;;;;;;;;;231.30;2252.80;;;;;;5088753;28;20363;-61
2022/10/05 01:33:03;;;;;;;;;;;231.30;2252.80;;;;;;5093194;28;19916;-62
2022/10/05 01:35:47;;;;;;;;;;;256.00;2252.80;;;;;;5093826;28;19931;-64
2022/10/05 01:38:12;;;;;;;;;;;256.00;2252.80;;;;;;5093476;28;19908;-62
2022/10/05 01:40:55;;;;;;;;;;;256.10;2252.80;;;;;;5093479;28;19995;-65
2022/10/05 01:43:24;;;;;;;;;;;256.10;2252.80;;;;;;5093158;28;19916;-62
2022/10/05 01:45:49;;;;;;;;;;;256.10;2252.80;;;;;;5093202;28;19944;-63
2022/10/05 01:48:15;;;;;;;;;;;256.00;2252.80;;;;;;5092853;28;19940;-61
2022/10/05 01:50:40;;;;;;;;;;;256.00;2252.80;;;;;;5093157;28;20346;-61
2022/10/05 01:53:12;;;;;;;;;;;256.00;2252.80;;;;;;5093198;28;19922;-61
2022/10/05 01:55:45;;;;;;;;;;;256.00;2252.80;;;;;;5093151;28;19977;-61
2022/10/05 01:58:18;;;;;;;;;;;256.00;2252.80;;;;;;5092857;28;20377;-61
2022/10/05 02:00:50;;;;;;;;;;;256.00;2252.80;;;;;;5092874;28;19908;-61
2022/10/05 02:03:35;;;;;;;;;;;256.00;2252.80;;;;;;5092723;28;19908;-61
2022/10/05 02:06:07;;;;;;;;;;;231.20;2252.80;;;;;;5092525;28;19935;-61
2022/10/05 02:08:36;;;;;;;;;;;231.30;2252.80;;;;;;5092895;28;19914;-64
2022/10/05 02:11:10;;;;;;;;;;;231.30;2252.80;;;;;;5092713;28;19912;-61
2022/10/05 02:13:35;;;;;;;;;;;231.30;2252.80;;;;;;5092849;28;19958;-64
2022/10/05 02:16:20;;;;;;;;;;;231.20;2252.80;;;;;;5092746;28;19957;-62
2022/10/05 02:18:49;;;;;;;;;;;231.10;2252.80;;;;;;5092889;28;20003;-61
2022/10/05 02:21:15;;;;;;;;;;;231.00;2252.80;;;;;;5092595;28;19954;-62
2022/10/05 02:23:41;;;;;;;;;;;231.00;2252.80;;;;;;5092463;28;19919;-62
2022/10/05 02:26:09;;;;;;;;;;;231.00;2252.80;;;;;;5092721;28;19969;-61
2022/10/05 02:28:35;;;;;;;;;;;231.00;2252.80;;;;;;5092643;28;19934;-61
2022/10/05 02:31:05;;;;;;;;;;;231.10;2252.80;;;;;;5092245;28;19912;-62
2022/10/05 02:33:32;;;;;;;;;;;231.10;2252.80;;;;;;5092135;28;19989;-61
2022/10/05 02:36:01;;;;;;;;;;;231.10;2252.80;;;;;;5091702;28;20344;-61
2022/10/05 02:38:53;;;;;;;;;;;231.10;2252.80;;;;;;5092452;28;19908;-63
2022/10/05 02:41:33;;;;;;;;;;;231.10;2252.80;;;;;;5090973;28;19909;-65
2022/10/05 02:44:11;;;;;;;;;;;231.20;2252.80;;;;;;5092612;28;19955;-63
2022/10/05 02:46:45;;;;;;;;;;;231.20;2252.80;;;;;;5091969;28;20993;-64
2022/10/05 02:49:10;;;;;;;;;;;231.10;2252.80;;;;;;5091987;28;20120;-62
2022/10/05 02:51:45;;;;;;;;;;;231.10;2252.80;;;;;;5092036;28;20468;-64
2022/10/05 02:54:13;;;;;;;;;;;231.10;2252.80;;;;;;5091668;28;20384;-61
2022/10/05 02:56:59;;;;;;;;;;;231.00;2252.80;;;;;;5092084;28;19947;-61
2022/10/05 02:59:31;;;;;;;;;;;231.10;2252.80;;;;;;5091209;28;20289;-61
2022/10/05 03:02:11;;;;;;;;;;;231.00;2252.80;;;;;;5091774;28;19955;-64
2022/10/05 03:04:36;;;;;;;;;;;230.90;2252.80;;;;;;5091638;28;19912;-64
2022/10/05 03:07:05;;;;;;;;;;;230.70;2252.80;;;;;;5091490;28;19935;-60
2022/10/05 03:09:35;;;;;;;;;;;230.70;2252.80;;;;;;5091566;28;19912;-61
2022/10/05 03:12:00;;;;;;;;;;;230.80;2252.80;;;;;;5091423;28;19957;-61
2022/10/05 03:14:38;;;;;;;;;;;230.80;2252.80;;;;;;5091982;28;20000;-65
2022/10/05 03:17:09;;;;;;;;;;;230.90;2252.80;;;;;;5091387;28;19908;-61
2022/10/05 03:19:53;;;;;;;;;;;230.90;2252.80;;;;;;5091917;28;19912;-64
2022/10/05 03:22:31;;;;;;;;;;;230.90;2252.80;;;;;;5091517;28;20354;-65
2022/10/05 03:24:56;;;;;;;;;;;230.90;2252.80;;;;;;5091662;28;20355;-66
2022/10/05 03:27:32;;;;;;;;;;;230.80;2252.80;;;;;;5091140;28;19915;-61
2022/10/05 03:29:57;;;;;;;;;;;230.90;2252.80;;;;;;5091452;28;19962;-61
2022/10/05 03:32:32;;;;;;;;;;;230.80;2252.80;;;;;;5091039;28;20329;-61
2022/10/05 03:35:16;;;;;;;;;;;230.80;2252.80;;;;;;5091032;28;19915;-64
2022/10/05 03:38:00;;;;;;;;;;;230.70;2252.80;;;;;;5091060;28;20299;-61
2022/10/05 03:40:32;;;;;;;;;;;230.80;2252.80;;;;;;5091188;28;20274;-65
2022/10/05 03:43:20;;;;;;;;;;;230.80;2252.80;;;;;;5090724;28;19912;-67
2022/10/05 03:45:57;;;;;;;;;;;230.80;2252.80;;;;;;5067689;28;19912;-67
2022/10/05 03:48:27;;;;;;;;;;;230.80;2252.80;;;;;;5067702;28;19908;-61
2022/10/05 03:51:14;;;;;;;;;;;230.80;2252.80;;;;;;5067697;28;19915;-65
2022/10/05 03:54:02;;;;;;;;;;;230.80;2252.80;;;;;;5068451;28;19966;-66
2022/10/05 03:56:54;;;;;;;;;;;230.80;2252.80;;;;;;5008915;28;20012;-65
2022/10/05 03:59:29;;;;;;;;;;;230.80;2252.80;;;;;;5006839;28;20278;-67
2022/10/05 04:02:03;;;;;;;;;;;230.70;2252.80;;;;;;5008442;28;20012;-65
2022/10/05 04:04:38;;;;;;;;;;;230.70;2252.80;;;;;;5008462;28;20012;-66
2022/10/05 04:07:05;;;;;;;;;;;230.60;2252.80;;;;;;5008011;28;19936;-66
2022/10/05 04:09:35;;;;;;;;;;;230.50;2252.80;;;;;;5008344;28;20072;-61
2022/10/05 04:12:20;;;;;;;;;;;230.60;2252.80;;;;;;5008423;28;19937;-66
2022/10/05 04:15:07;;;;;;;;;;;230.60;2252.80;;;;;;5008167;28;19909;-66
2022/10/05 04:17:37;;;;;;;;;;;230.60;2252.80;;;;;;5008127;28;19913;-60
2022/10/05 04:20:06;;;;;;;;;;;230.40;2252.80;;;;;;5008193;28;19910;-60
2022/10/05 04:22:37;;;;;;;;;;;230.50;2252.80;;;;;;5023742;28;19920;-62
2022/10/05 04:25:27;;;;;;;;;;;230.40;2252.80;;;;;;5047907;28;19920;-61
2022/10/05 04:28:05;;;;;;;;;;;230.40;2252.80;;;;;;5047794;28;20357;-65
2022/10/05 04:30:32;;;;;;;;;;;230.40;2252.80;;;;;;5047915;28;20500;-62
2022/10/05 04:32:58;;;;;;;;;;;230.40;2252.80;;;;;;5060140;28;19924;-66
2022/10/05 04:35:26;;;;;;;;;;;230.50;2252.80;;;;;;5089704;28;19926;-67
2022/10/05 04:37:52;;;;;;;;;;;230.50;2252.80;;;;;;5089719;28;19912;-66
2022/10/05 04:40:36;;;;;;;;;;;230.50;2252.80;;;;;;5090002;28;20010;-65
2022/10/05 04:43:04;;;;;;;;;;;230.50;2252.80;;;;;;5090227;28;20324;-63
2022/10/05 04:45:48;;;;;;;;;;;230.60;2252.80;;;;;;5090590;28;19923;-62
2022/10/05 04:48:29;;;;;;;;;;;230.60;2252.80;;;;;;5090289;28;19908;-64
2022/10/05 04:50:58;;;;;;;;;;;230.60;2252.80;;;;;;5090657;28;19940;-64
2022/10/05 04:53:46;;;;;;;;;;;230.60;2252.80;;;;;;5089630;28;19982;-62
2022/10/05 04:56:18;;;;;;;;;;;230.60;2252.80;;;;;;5084345;28;19948;-61
2022/10/05 04:59:04;;;;;;;;;;;230.70;2252.80;;;;;;5091853;28;20341;-61
2022/10/05 05:01:32;;;;;;;;;;;230.70;2252.80;;;;;;5071865;28;19915;-62
2022/10/05 05:04:15;;;;;;;;;;;230.80;2252.80;;;;;;5071817;28;20343;-62
2022/10/05 05:06:50;;;;;;;;;;;230.90;2252.80;;;;;;5071614;28;20069;-64
2022/10/05 05:09:16;;;;;;;;;;;231.10;2252.80;;;;;;5071919;28;19999;-62
2022/10/05 05:11:44;;;;;;;;;;;231.20;2252.80;;;;;;5071721;28;20011;-63
2022/10/05 05:14:15;;;;;;;;;;;256.00;2252.80;;;;;;5054697;28;19908;-64
2022/10/05 05:16:42;;;;;;;;;;;256.10;2252.80;;;;;;5071676;28;20007;-62
2022/10/05 05:19:07;;;;;;;;;;;256.20;2252.80;;;;;;5071666;28;19915;-61
2022/10/05 05:21:33;;;;;;;;;;;256.20;2252.80;;;;;;5071445;28;19908;-63
2022/10/05 05:24:24;;;;;;;;;;;256.40;2252.80;;;;;;5071757;28;19974;-62
2022/10/05 05:26:53;;;;;;;;;;;256.40;2252.80;;;;;;5011718;28;19913;-62
2022/10/05 05:29:26;;;;;;;;;;;256.50;2252.80;;;;;;5012007;28;20249;-64
2022/10/05 05:31:56;;;;;;;;;;;256.60;2252.80;;;;;;5009694;28;19917;-61
2022/10/05 05:34:28;;;;;;;;;;;256.70;2252.80;;;;;;5011099;28;19959;-62
2022/10/05 05:36:59;;;;;;;;;;;256.80;2252.80;;;;;;5011024;28;19925;-61
2022/10/05 05:39:24;;;;;;;;;;;256.90;2252.80;;;;;;5044363;28;19913;-64
2022/10/05 05:41:55;;;;;;;;;;;281.60;2278.40;;;;;;5051417;28;20280;-61
2022/10/05 05:44:25;;;;;;;;;;;281.80;2278.40;;;;;;5051021;28;19913;-63
2022/10/05 05:46:59;;;;;;;;;;;281.90;2278.40;;;;;;5051340;28;19913;-62
2022/10/05 05:49:36;;;;;;;;;;;282.10;2278.40;;;;;;5051249;28;19947;-63
2022/10/05 05:52:10;;;;;;;;;;;282.10;2278.40;;;;;;5051025;28;19963;-61
2022/10/05 05:54:40;;;;;;;;;;;282.50;2278.40;;;;;;5051438;28;20251;-61
2022/10/05 05:57:24;;;;;;;;;;;307.20;2304.00;;;;;;5051142;28;20322;-65
2022/10/05 05:59:53;;;;;;;;;;;307.50;2304.00;;;;;;5051140;28;19908;-65
2022/10/05 06:02:22;;;;;;;;;;;307.70;2304.00;;;;;;5050728;28;19999;-63
2022/10/05 06:05:00;;;;;;;;;;;307.90;2304.00;;;;;;5092757;28;19912;-66
2022/10/05 06:07:28;;;;;;;;;;;333.60;2329.60;;;;;;5093213;28;19930;-66
2022/10/05 06:10:12;;;;;;;;;;;359.10;2329.60;;;;;;5092668;28;19963;-63
2022/10/05 06:12:41;;;;;;;;;;;384.80;2329.60;;;;;;5093207;28;19916;-65
2022/10/05 06:15:26;;;;;;;;;;;435.50;2355.20;;;;;;5093071;28;19947;-66
2022/10/05 06:17:53;;;;;;;;;;;436.10;2355.20;;;;;;5093066;28;19912;-62
2022/10/05 06:20:23;;;;;;;;;;;486.50;2252.80;;;;;;5092553;28;20419;-63
2022/10/05 06:22:49;;;;;;;;;;;486.60;2201.60;;;;;;5092631;28;19927;-64
2022/10/05 06:25:22;;;;;;;;;;;487.00;2150.40;;;;;;5093841;28;19912;-62
2022/10/05 06:28:08;;;;;;;;;;;487.30;2099.20;;;;;;5092866;28;19920;-60
2022/10/05 06:30:41;;;;;;;;;;;512.80;2022.40;;;;;;5111527;28;19912;-62
2022/10/05 06:33:10;;;;;;;;;;;512.80;1971.20;;;;;;5113249;28;20006;-62
2022/10/05 06:35:39;;;;;;;;;;;563.60;1894.40;;;;;;5113335;27;19919;-61
2022/10/05 06:38:04;;;;;;;;;;;614.60;1766.40;;;;;;5113115;28;19908;-62
2022/10/05 06:40:48;;;;;;;;;;;614.90;1689.60;;;;;;5113465;28;20442;-62
2022/10/05 06:43:40;;;;;;;;;;;615.20;1664.00;;;;;;5105160;28;20362;-62
2022/10/05 06:46:11;;;;;;;;;;;665.70;1612.80;;;;;;5100347;28;19912;-62
2022/10/05 06:48:43;;;;;;;;;;;691.20;1510.40;;;;;;5109118;28;19911;-61
2022/10/05 06:51:14;;;;;;;;;;;666.40;1536.00;;;;;;5107913;28;19965;-62
2022/10/05 06:53:44;;;;;;;;;;;666.30;1510.40;;;;;;5112710;28;20431;-61
2022/10/05 06:56:10;;;;;;;;;;;666.20;1536.00;;;;;;5112960;28;19915;-65
2022/10/05 06:58:49;;;;;;;;;;;665.90;1536.00;;;;;;5112774;28;19907;-61
2022/10/05 07:01:14;;;;;;;;;;;665.70;1561.60;;;;;;5112584;28;19914;-62
2022/10/05 07:03:58;;;;;;;;;;;640.90;1536.00;;;;;;5112714;28;20377;-62
2022/10/05 07:06:32;;;;;;;;;;;666.30;1536.00;;;;;;5112274;28;19927;-62
2022/10/05 07:09:13;;;;;;;;;;;640.50;1561.60;;;;;;5112941;28;19961;-62
2022/10/05 07:12:11;;;;;;;;;;;691.20;1510.40;;;;;;5110190;28;19907;-61
2022/10/05 07:14:55;;;;;;;;;;;640.90;1536.00;;;;;;5043664;28;19917;-62
2022/10/05 07:17:29;;;;;;;;;;;665.60;1561.60;;;;;;5029659;28;19924;-62
2022/10/05 07:20:12;;;;;;;;;;;665.70;1561.60;;;;;;5029279;28;19940;-62
2022/10/05 07:23:00;;;;;;;;;;;691.20;1536.00;;;;;;5029132;28;19955;-62
2022/10/05 07:25:26;;;;;;;;;;;717.60;1433.60;;;;;;5029545;28;19909;-61
2022/10/05 07:27:55;;;;;;;;;;;716.80;1459.20;;;;;;5029221;28;19916;-62
2022/10/05 07:30:21;;;;;;;;;;;742.60;1433.60;;;;;;5029427;28;19924;-62
2022/10/05 07:32:49;;;;;;;;;;;743.10;1382.40;;;;;;5029204;28;19917;-61
2022/10/05 07:38:01;;;;;;;;;;;768.20;1356.80;;;;;;5029398;28;20303;-60
2022/10/05 07:40:53;;;;;;;;;;;768.40;1356.80;;;;;;5029281;28;20453;-61
2022/10/05 07:43:40;;;;;;;;;;;768.60;1356.80;;;;;;5026160;28;20342;-61
2022/10/05 07:46:18;;;;;;;;;;;768.20;1356.80;;;;;;5029107;28;19951;-62
2022/10/05 07:48:51;;;;;;;;;;;768.10;1356.80;;;;;;5028905;28;19909;-61
2022/10/05 07:51:19;;;;;;;;;;;793.60;1331.20;;;;;;5068857;28;19908;-62
2022/10/05 07:53:50;;;;;;;;;;;743.00;1356.80;;;;;;5070778;28;19916;-61
2022/10/05 07:56:28;;;;;;;;;;;742.40;1433.60;;;;;;5071045;28;19987;-61
2022/10/05 07:59:06;;;;;;;;;;;742.70;1408.00;;;;;;5070738;28;20022;-61
2022/10/05 08:01:36;;;;;;;;;;;717.50;1382.40;;;;;;5070748;28;19913;-62
2022/10/05 08:04:02;;;;;;;;;;;666.40;1433.60;;;;;;5070538;28;19917;-62
2022/10/05 08:06:37;;;;;;;;;;;666.30;1459.20;;;;;;5070931;28;20031;-61
2022/10/05 08:09:21;;;;;;;;;;;691.50;1433.60;;;;;;5070655;28;19915;-61
2022/10/05 08:11:49;;;;;;;;;;;691.70;1433.60;;;;;;5070768;28;19908;-61
2022/10/05 08:14:19;;;;;;;;;;;691.60;1408.00;;;;;;5070639;28;19975;-62
2022/10/05 08:16:46;;;;;;;;;;;666.50;1459.20;;;;;;5085056;28;19919;-60
2022/10/05 08:19:30;;;;;;;;;;;692.00;1408.00;;;;;;5097697;28;19919;-61
2022/10/05 08:22:02;;;;;;;;;;;742.60;1356.80;;;;;;5091111;28;19920;-59
2022/10/05 08:24:30;;;;;;;;;;;692.10;1382.40;;;;;;5100794;28;19908;-59
2022/10/05 08:27:01;;;;;;;;;;;743.10;1356.80;;;;;;5090154;28;19912;-58
2022/10/05 08:29:30;;;;;;;;;;;793.70;1280.00;;;;;;5090899;28;19915;-64
2022/10/05 08:32:00;;;;;;;;;;;819.90;1228.80;;;;;;5090288;28;19912;-60
2022/10/05 08:34:29;;;;;;;;;;;794.50;1254.40;;;;;;5090052;28;19919;-60
2022/10/05 08:36:55;;;;;;;;;;;743.30;1331.20;;;;;;5090515;28;19919;-60
2022/10/05 08:39:23;;;;;;;;;;;743.20;1331.20;;;;;;5090591;28;19912;-62
2022/10/05 08:42:01;;;;;;;;;;;819.60;1228.80;;;;;;5090278;28;19912;-60
2022/10/05 08:44:27;;;;;;;;;;;;;;;;;;5090866;28;19948;-61
2022/10/05 08:46:58;;;;;;;;;;;820.00;1228.80;;;;;;5090518;28;20377;-62
2022/10/05 08:49:41;;;;;;;;;;;819.30;1203.20;;;;;;5090380;28;19912;-62
2022/10/05 08:52:10;;;;;;;;;;;844.90;1203.20;;;;;;5090571;28;20362;-61
2022/10/05 08:54:54;;;;;;;;;;;820.00;1203.20;;;;;;5090393;28;20358;-63
2022/10/05 08:57:29;;;;;;;;;;;793.70;1280.00;;;;;;5090513;28;19915;-62
2022/10/05 08:59:55;;;;;;;;;;;768.80;1254.40;;;;;;5090323;28;19961;-62
2022/10/05 09:02:39;;;;;;;;;;;717.30;1305.60;;;;;;5090568;28;19916;-62
2022/10/05 09:05:20;;;;;;;;;;;666.20;1382.40;;;;;;5090310;28;19916;-62
2022/10/05 09:07:51;;;;;;;;;;;665.60;1433.60;;;;;;5089994;28;20273;-61
2022/10/05 09:10:36;;;;;;;;;;;665.60;1459.20;;;;;;5090346;28;20308;-62
2022/10/05 09:13:16;;;;;;;;;;;640.70;1459.20;;;;;;5090011;28;20293;-62
2022/10/05 09:16:02;;;;;;;;;;;640.60;1433.60;;;;;;5090167;28;19912;-62
2022/10/05 09:18:27;;;;;;;;;;;614.80;1484.80;;;;;;5090262;28;20292;-62
2022/10/05 09:20:54;;;;;;;;;;;589.10;1561.60;;;;;;5089998;28;20010;-60
2022/10/05 09:23:25;;;;;;;;;;;563.50;1612.80;;;;;;5090307;28;20351;-61
2022/10/05 09:25:55;;;;;;;;;;;563.60;1612.80;;;;;;5090015;28;19919;-62
2022/10/05 09:28:24;;;;;;;;;;;564.00;1587.20;;;;;;5090024;28;20078;-61
2022/10/05 09:31:05;;;;;;;;;;;564.00;1638.40;;;;;;5090216;28;19908;-61
2022/10/05 09:33:33;;;;;;;;;;;563.60;1638.40;;;;;;5088386;28;19921;-61
2022/10/05 09:36:01;;;;;;;;;;;563.50;1638.40;;;;;;5089129;28;20277;-61
2022/10/05 09:38:27;;;;;;;;;;;563.50;1664.00;;;;;;5088872;28;19920;-62
2022/10/05 09:40:52;;;;;;;;;;;538.50;1664.00;;;;;;5088408;28;19912;-60
2022/10/05 09:43:18;;;;;;;;;;;538.50;1664.00;;;;;;5087399;28;19927;-61
2022/10/05 09:45:52;;;;;;;;;;;563.60;1664.00;;;;;;5090482;28;19908;-60
2022/10/05 09:48:22;;;;;;;;;;;563.80;1638.40;;;;;;5090079;28;19969;-60
2022/10/05 09:50:48;;;;;;;;;;;563.30;1638.40;;;;;;5090462;28;19984;-60
2022/10/05 09:53:16;;;;;;;;;;;538.00;1612.80;;;;;;5091759;28;20425;-60
2022/10/05 09:56:00;;;;;;;;;;;538.50;1612.80;;;;;;5090863;28;19957;-62
2022/10/05 09:58:32;;;;;;;;;;;538.30;1612.80;;;;;;5092442;28;19922;-61
2022/10/05 10:01:04;;;;;;;;;;;538.50;1612.80;;;;;;5093935;28;19912;-61
2022/10/05 10:03:48;;;;;;;;;;;537.90;1664.00;;;;;;5093577;28;19918;-61
2022/10/05 10:06:26;;;;;;;;;;;537.70;1638.40;;;;;;5093073;28;20075;-62
2022/10/05 10:09:18;;;;;;;;;;;537.90;1638.40;;;;;;5093102;28;19916;-61
2022/10/05 10:12:04;;;;;;;;;;;537.60;1664.00;;;;;;5084329;28;19911;-62
2022/10/05 10:14:41;;;;;;;;;;;537.60;1638.40;;;;;;5093095;28;19912;-61
2022/10/05 10:17:13;;;;;;;;;;;538.00;1638.40;;;;;;5093176;28;19998;-61
2022/10/05 10:19:51;;;;;;;;;;;512.40;1664.00;;;;;;5093358;28;19915;-61
2022/10/05 10:22:16;;;;;;;;;;;512.90;1638.40;;;;;;5093244;28;19908;-60
2022/10/05 10:25:00;;;;;;;;;;;512.40;1664.00;;;;;;5092994;28;19934;-61
2022/10/05 10:27:30;;;;;;;;;;;512.20;1638.40;;;;;;5093154;28;20350;-61
2022/10/05 10:30:17;;;;;;;;;;;512.80;1664.00;;;;;;5093121;28;19915;-61
2022/10/05 10:32:46;;;;;;;;;;;512.70;1638.40;;;;;;5092626;28;19923;-61
2022/10/05 10:35:21;;;;;;;;;;;512.60;1689.60;;;;;;5092871;28;19920;-61
2022/10/05 10:37:57;;;;;;;;;;;512.30;1715.20;;;;;;5093021;28;19908;-61
2022/10/05 10:40:24;;;;;;;;;;;512.60;1689.60;;;;;;5092506;28;19908;-61
2022/10/05 10:43:25;;;;;;;;;;;512.40;1689.60;;;;;;5093147;28;19915;-61
2022/10/05 10:45:57;;;;;;;;;;;512.90;1689.60;;;;;;5070216;28;19955;-61
2022/10/05 10:48:29;;;;;;;;;;;512.40;1715.20;;;;;;5069996;28;19956;-61
2022/10/05 10:51:12;;;;;;;;;;;512.90;1715.20;;;;;;5069933;28;19963;-61
2022/10/05 10:53:47;;;;;;;;;;;537.80;1740.80;;;;;;5070013;28;19940;-61
2022/10/05 10:56:22;;;;;;;;;;;537.90;1715.20;;;;;;5069195;28;20019;-61
2022/10/05 10:59:06;;;;;;;;;;;512.70;1689.60;;;;;;5070238;28;19918;-61
2022/10/05 11:01:32;;;;;;;;;;;512.80;1715.20;;;;;;5069635;28;20382;-61
2022/10/05 11:04:16;;;;;;;;;;;537.60;1740.80;;;;;;5069838;28;19913;-61
2022/10/05 11:06:54;;;;;;;;;;;512.70;1740.80;;;;;;5069603;28;19932;-61
2022/10/05 11:09:19;;;;;;;;;;;512.50;1715.20;;;;;;5069791;28;19908;-61
2022/10/05 11:11:49;;;;;;;;;;;512.60;1715.20;;;;;;5069495;28;20306;-61
2022/10/05 11:14:33;;;;;;;;;;;512.90;1740.80;;;;;;5069560;28;19951;-61
2022/10/05 11:17:16;;;;;;;;;;;512.90;1715.20;;;;;;5069792;28;19908;-61
2022/10/05 11:19:48;;;;;;;;;;;512.90;1715.20;;;;;;5079323;28;20103;-61
2022/10/05 11:22:16;;;;;;;;;;;512.50;1715.20;;;;;;5091708;28;20343;-61
2022/10/05 11:24:42;;;;;;;;;;;512.60;1715.20;;;;;;5091677;28;19934;-61
2022/10/05 11:27:13;;;;;;;;;;;512.70;1715.20;;;;;;5092025;28;20354;-61
2022/10/05 11:29:41;;;;;;;;;;;512.40;1740.80;;;;;;5091985;28;19934;-61
2022/10/05 11:32:13;;;;;;;;;;;512.40;1740.80;;;;;;5091713;28;19923;-61
2022/10/05 11:34:44;;;;;;;;;;;512.80;1740.80;;;;;;5091580;28;19962;-61
2022/10/05 11:37:22;;;;;;;;;;;512.70;1740.80;;;;;;5091638;28;19916;-61
2022/10/05 11:40:00;;;;;;;;;;;512.70;1766.40;;;;;;5091619;28;19912;-61
2022/10/05 11:42:40;;;;;;;;;;;512.50;1740.80;;;;;;5091590;28;19908;-61
2022/10/05 11:45:06;;;;;;;;;;;512.80;1740.80;;;;;;5091479;28;19908;-61
2022/10/05 11:47:55;;;;;;;;;;;512.90;1715.20;;;;;;5091142;28;20431;-61
2022/10/05 11:50:20;;;;;;;;;;;512.90;1715.20;;;;;;5068562;28;19909;-61
2022/10/05 11:52:58;;;;;;;;;;;512.80;1715.20;;;;;;5068661;28;20011;-59
2022/10/05 11:55:32;;;;;;;;;;;512.60;1715.20;;;;;;5068507;28;19943;-61
2022/10/05 11:58:00;;;;;;;;;;;512.60;1740.80;;;;;;5068899;28;19978;-61
2022/10/05 12:00:39;;;;;;;;;;;512.70;1740.80;;;;;;5068773;28;19908;-61
2022/10/05 12:03:25;;;;;;;;;;;512.60;1766.40;;;;;;5068253;28;19956;-61
2022/10/05 12:05:56;;;;;;;;;;;512.90;1740.80;;;;;;5067861;28;19924;-61
2022/10/05 12:08:37;;;;;;;;;;;512.50;1740.80;;;;;;5068349;28;20019;-61
2022/10/05 12:11:21;;;;;;;;;;;512.30;1740.80;;;;;;5068472;28;19997;-61
2022/10/05 12:13:57;;;;;;;;;;;512.60;1740.80;;;;;;5068523;28;19917;-60
2022/10/05 12:16:34;;;;;;;;;;;512.80;1715.20;;;;;;5068213;28;19916;-61
2022/10/05 12:19:10;;;;;;;;;;;512.50;1766.40;;;;;;5068379;28;20287;-61
2022/10/05 12:21:48;;;;;;;;;;;512.40;1740.80;;;;;;5068165;28;20043;-61
2022/10/05 12:24:19;;;;;;;;;;;512.60;1740.80;;;;;;5066393;28;20404;-61
2022/10/05 12:26:48;;;;;;;;;;;512.70;1740.80;;;;;;5072016;28;20386;-61
2022/10/05 12:29:25;;;;;;;;;;;512.90;1740.80;;;;;;5089133;28;19937;-61
2022/10/05 12:32:10;;;;;;;;;;;512.90;1740.80;;;;;;5088819;28;19908;-62
2022/10/05 12:34:54;;;;;;;;;;;537.70;1740.80;;;;;;5088910;28;19923;-60
2022/10/05 12:37:39;;;;;;;;;;;512.90;1715.20;;;;;;5088560;28;19912;-60
2022/10/05 12:40:23;;;;;;;;;;;537.80;1740.80;;;;;;5088776;28;19946;-61
2022/10/05 12:42:58;;;;;;;;;;;537.60;1740.80;;;;;;5089038;28;19908;-60
2022/10/05 12:45:26;;;;;;;;;;;512.90;1740.80;;;;;;5088968;28;20059;-61
2022/10/05 12:48:03;;;;;;;;;;;512.60;1740.80;;;;;;5088697;28;20398;-61
2022/10/05 12:50:33;;;;;;;;;;;512.50;1766.40;;;;;;5088489;28;19955;-60
2022/10/05 12:53:17;;;;;;;;;;;512.90;1715.20;;;;;;5089167;28;19922;-60
2022/10/05 12:55:52;;;;;;;;;;;537.70;1740.80;;;;;;5088787;28;19908;-61
2022/10/05 12:58:20;;;;;;;;;;;537.60;1766.40;;;;;;5088931;28;20480;-61
2022/10/05 13:01:15;;;;;;;;;;;537.80;1740.80;;;;;;5088913;28;19916;-61
2022/10/05 13:03:44;;;;;;;;;;;538.00;1817.60;;;;;;5065273;28;19999;-61
2022/10/05 13:06:23;;;;;;;;;;;537.70;1740.80;;;;;;5065900;28;19993;-61
2022/10/05 13:08:52;;;;;;;;;;;512.90;1740.80;;;;;;5066265;28;19909;-61
2022/10/05 13:11:23;;;;;;;;;;;512.90;1766.40;;;;;;5066154;28;19919;-61
2022/10/05 13:13:52;;;;;;;;;;;512.70;1766.40;;;;;;5066084;28;19920;-61
2022/10/05 13:16:36;;;;;;;;;;;512.70;1740.80;;;;;;5065710;28;20458;-60
2022/10/05 13:19:01;;;;;;;;;;;512.30;1766.40;;;;;;5066480;28;20317;-61
2022/10/05 13:21:32;;;;;;;;;;;512.70;1766.40;;;;;;5069994;28;19909;-61
2022/10/05 13:23:58;;;;;;;;;;;512.30;1792.00;;;;;;5069937;28;19912;-60
2022/10/05 13:26:26;;;;;;;;;;;512.40;1792.00;;;;;;5069701;28;19919;-60
2022/10/05 13:28:51;;;;;;;;;;;512.30;1792.00;;;;;;5069415;28;20384;-61
2022/10/05 13:31:19;;;;;;;;;;;512.30;1792.00;;;;;;5069558;28;19912;-61
2022/10/05 13:34:02;;;;;;;;;;;512.60;1792.00;;;;;;5069299;28;19920;-61
2022/10/05 13:36:31;;;;;;;;;;;512.60;1792.00;;;;;;5069446;28;19913;-59
2022/10/05 13:39:08;;;;;;;;;;;512.60;1792.00;;;;;;5070016;28;19955;-61
2022/10/05 13:41:37;;;;;;;;;;;512.60;1792.00;;;;;;5092118;28;19911;-61
2022/10/05 13:44:11;;;;;;;;;;;512.60;1792.00;;;;;;5091552;28;20353;-60
2022/10/05 13:46:37;;;;;;;;;;;512.50;1792.00;;;;;;5092327;28;20346;-61
2022/10/05 13:49:11;;;;;;;;;;;512.70;1792.00;;;;;;5091997;28;19908;-61
2022/10/05 13:51:55;;;;;;;;;;;512.90;1766.40;;;;;;5091957;28;19915;-61
2022/10/05 13:54:39;;;;;;;;;;;512.70;1766.40;;;;;;5091805;28;19922;-61
2022/10/05 13:57:10;;;;;;;;;;;512.50;1792.00;;;;;;5091651;28;19985;-60
2022/10/05 13:59:55;;;;;;;;;;;512.50;1817.60;;;;;;5091759;28;19959;-61
2022/10/05 14:02:34;;;;;;;;;;;512.40;1792.00;;;;;;5091335;28;19908;-61
2022/10/05 14:05:01;;;;;;;;;;;512.30;1817.60;;;;;;5091609;28;19999;-61
2022/10/05 14:07:30;;;;;;;;;;;512.30;1817.60;;;;;;5091630;28;19924;-60
2022/10/05 14:09:56;;;;;;;;;;;512.10;1817.60;;;;;;5091493;28;19912;-60
2022/10/05 14:12:22;;;;;;;;;;;512.10;1843.20;;;;;;5091325;28;19970;-61
2022/10/05 14:14:51;;;;;;;;;;;512.20;1817.60;;;;;;5092051;28;20006;-61
2022/10/05 14:17:36;;;;;;;;;;;512.20;1792.00;;;;;;5091872;28;19919;-60
2022/10/05 14:20:14;;;;;;;;;;;512.20;1792.00;;;;;;5091423;28;19962;-61
2022/10/05 14:22:40;;;;;;;;;;;512.10;1817.60;;;;;;5091155;28;20366;-60